Latest Weather Observations for Wangaratta

IDV60801

Issued at 8:02 pm EST Monday 1 June 2020 (issued every 10 minutes, with the page automatically refreshed every 10 minutes)

About weather observations | Map of weather stations | Latest weather observations for VIC | Other Formats
Station Details ID: 082138 Name: WANGARATTA AERO Lat: -36.42 Lon: 146.31 Height: 152.6 m
Data from the previous 72 hours. | See also: Recent months at Wangaratta
Date/Time
EST
Temp
°C
App
Temp
°C
Dew
Point
°C
Rel
Hum
%
Delta-T
°C
Wind Press
QNH
hPa
Press
MSL
hPa
Rain since
9am
mm
Dir  Spd
km/h
Gust
km/h
Spd
kts
Gust
kts
01/08:00pm 7.2 4.0 6.8 97 0.2 W 13 17 7 9 1013.9 1014.2 3.2
01/07:30pm 7.3 3.6 6.4 94 0.4 W 15 20 8 11 1013.6 1013.9 3.0
01/07:22pm 7.3 3.2 6.2 93 0.5 W 17 22 9 12 1013.5 1013.8 3.0
01/07:00pm 7.1 3.0 6.0 93 0.5 W 17 24 9 13 1013.1 1013.3 2.6
01/06:30pm 7.6 2.8 5.6 87 0.9 W 20 28 11 15 1012.4 1012.6 2.0
01/06:00pm 7.7 2.9 5.5 86 1.0 W 20 32 11 17 1012.0 1012.2 2.0
01/05:30pm 8.0 2.4 5.5 84 1.1 W 24 33 13 18 1011.4 1011.7 2.0
01/05:00pm 7.9 1.5 5.2 83 1.2 W 28 39 15 21 1010.7 1011.0 2.0
01/04:30pm 8.5 2.6 5.6 82 1.3 W 26 37 14 20 1010.2 1010.5 2.0
01/04:00pm 8.9 3.3 5.6 80 1.5 W 24 37 13 20 1009.8 1010.1 2.0
01/03:30pm 9.1 3.4 6.5 84 1.2 W 26 37 14 20 1009.4 1009.7 2.0
01/03:00pm 9.5 3.6 6.0 79 1.6 WNW 26 35 14 19 1009.0 1009.3 2.0
01/02:30pm 9.7 4.2 5.9 77 1.8 W 24 35 13 19 1008.3 1008.6 2.0
01/02:00pm 10.0 3.0 5.8 75 2.0 W 32 44 17 24 1008.1 1008.4 2.0
01/01:30pm 9.9 4.8 7.5 85 1.2 W 24 35 13 19 1007.8 1008.1 2.0
01/01:00pm 9.4 5.0 7.3 87 1.0 W 20 32 11 17 1007.6 1007.8 2.0
01/12:36pm 9.5 5.1 7.6 88 0.9 W 20 30 11 16 1007.4 1007.6 2.0
01/12:34pm 9.5 5.2 7.8 89 0.8 W 20 30 11 16 1007.4 1007.6 2.0
01/12:30pm 9.3 5.7 8.4 94 0.4 W 17 26 9 14 1007.4 1007.6 2.0
01/12:20pm 9.1 4.9 8.2 94 0.4 W 20 28 11 15 1007.4 1007.6 2.0
01/12:19pm 8.8 4.5 7.9 94 0.4 W 20 28 11 15 1007.5 1007.7 2.0
01/12:00pm 8.8 5.0 7.7 93 0.5 WNW 17 24 9 13 1007.5 1007.7 1.8
01/11:30am 8.7 4.4 7.8 94 0.4 W 20 28 11 15 1007.3 1007.5 1.8
01/11:22am 8.6 4.3 7.8 95 0.4 W 20 28 11 15 1007.3 1007.5 1.8
01/11:20am 8.7 4.4 7.9 95 0.4 W 20 28 11 15 1007.3 1007.5 1.8
01/11:00am 9.3 4.9 8.8 97 0.2 NW 22 35 12 19 1007.1 1007.3 1.4
01/10:57am 9.5 5.7 8.9 96 0.3 NW 19 32 10 17 1006.9 1007.1 1.2
01/10:51am 9.5 6.2 9.4 99 0.0 NW 17 24 9 13 1006.9 1007.1 1.0
01/10:41am 9.6 6.2 9.3 98 0.1 NW 17 24 9 13 1006.8 1007.0 1.0
01/10:30am 9.3 5.3 9.2 99 0.0 NNW 20 33 11 18 1006.8 1007.0 1.0
01/10:29am 9.4 5.5 9.3 99 0.0 NNW 20 30 11 16 1006.9 1007.1 1.0
01/10:00am 9.1 5.7 9.1 100 0.0 N 17 24 9 13 1006.7 1006.9 0.8
01/09:43am 9.1 6.1 9.1 100 0.0 N 15 20 8 11 1006.6 1006.7 0.4
01/09:30am 9.1 5.7 9.1 100 0.0 N 17 22 9 12 1006.5 1006.6 0.2
01/09:25am 9.1 5.7 9.1 100 0.0 N 17 20 9 11 1006.6 1006.7 0.0
01/09:00am 9.1 5.7 9.1 100 0.0 N 17 20 9 11 1006.7 1006.8 9.4
01/08:51am 9.1 6.1 9.1 100 0.0 N 15 20 8 11 1006.7 1006.8 9.4
01/08:30am 8.9 5.8 8.9 100 0.0 N 15 22 8 12 1006.8 1006.9 9.0
01/08:23am 9.0 5.6 9.0 100 0.0 NNE 17 22 9 12 1006.8 1006.9 8.6
01/08:00am 9.0 5.9 9.0 100 0.0 NNE 15 20 8 11 1006.8 1006.9 7.6
01/07:30am 9.0 6.3 9.0 100 0.0 N 13 20 7 11 1007.0 1007.1 6.4
01/07:00am 8.9 6.2 8.9 100 0.0 N 13 15 7 8 1007.0 1007.1 5.2
01/06:30am 8.8 6.1 8.8 100 0.0 NW 13 17 7 9 1006.8 1006.9 4.2
01/06:00am 8.3 6.6 8.3 100 0.0 N 7 9 4 5 1006.4 1006.5 4.0
01/05:30am 7.6 5.7 7.6 100 0.0 N 7 9 4 5 1006.8 1006.9 4.0
01/05:04am 8.4 6.3 8.4 100 0.0 NNW 9 11 5 6 1007.1 1007.2 4.0
01/05:00am 8.5 6.5 8.5 100 0.0 NNW 9 11 5 6 1007.1 1007.2 4.0
01/04:30am 8.5 8.2 8.5 100 0.0 CALM 0 0 0 0 1007.2 1007.3 4.0
01/04:26am 8.6 8.3 8.6 100 0.0 CALM 0 0 0 0 1007.4 1007.5 4.0
01/04:00am 9.0 7.6 9.0 100 0.0 NNE 6 7 3 4 1007.7 1007.8 4.0
01/03:30am 9.6 9.5 9.6 100 0.0 CALM 0 6 0 3 1008.2 1008.3 4.0
01/03:00am 9.7 9.6 9.6 99 0.1 CALM 0 0 0 0 1008.8 1008.9 4.0
01/02:30am 9.7 8.5 9.6 99 0.1 NW 6 7 3 4 1009.0 1009.1 3.8
01/02:00am 10.2 8.6 10.1 99 0.1 N 9 11 5 6 1009.0 1009.1 3.8
01/01:30am 10.4 8.0 10.2 99 0.1 N 13 17 7 9 1009.5 1009.6 3.8
01/01:00am 9.4 8.0 9.4 100 0.0 N 7 9 4 5 1009.6 1009.7 3.6
01/12:30am 9.6 8.4 9.5 99 0.1 N 6 7 3 4 1009.8 1009.9 3.6
01/12:00am 9.8 8.4 9.7 99 0.1 NNE 7 9 4 5 1010.2 1010.3 3.6
 
Date/Time
EST
Temp
°C
App
Temp
°C
Dew
Point
°C
Rel
Hum
%
Delta-T
°C
Wind Press
QNH
hPa
Press
MSL
hPa
Rain since
9am
mm
Dir  Spd
km/h
Gust
km/h
Spd
kts
Gust
kts
31/11:30pm 9.9 8.6 9.8 99 0.1 NNE 7 9 4 5 1010.6 1010.7 3.6
31/11:00pm 10.3 8.6 10.0 98 0.2 NE 9 11 5 6 1010.9 1011.0 3.6
31/10:30pm 10.8 9.1 9.9 94 0.5 N 9 13 5 7 1011.7 1011.8 3.6
31/10:00pm 11.2 8.0 10.1 93 0.6 NNE 17 20 9 11 1011.8 1011.9 3.4
31/09:41pm 10.8 8.4 9.9 94 0.5 NNE 13 15 7 8 1011.9 1012.0 3.2
31/09:30pm 10.9 9.2 9.8 93 0.6 NNW 9 17 5 9 1012.3 1012.4 3.0
31/09:19pm 10.7 8.3 9.9 95 0.4 W 13 19 7 10 1012.6 1012.7 1.2
31/09:00pm 10.6 9.3 9.2 91 0.7 NNW 6 9 3 5 1012.4 1012.5 0.0
31/08:30pm 11.3 9.5 9.4 88 1.0 N 9 9 5 5 1012.6 1012.7 0.0
31/08:00pm 11.1 9.2 9.2 88 1.0 N 9 9 5 5 1012.8 1012.9 0.0
31/07:30pm 10.9 8.7 9.3 90 0.8 NNE 11 13 6 7 1012.9 1013.0 0.0
31/07:00pm 11.5 9.2 9.1 85 1.2 N 11 13 6 7 1013.0 1013.1 0.0
31/06:30pm 12.1 9.8 8.9 81 1.6 N 11 13 6 7 1012.8 1012.9 0.0
31/06:00pm 12.2 9.5 8.9 80 1.7 N 13 15 7 8 1012.6 1012.7 0.0
31/05:30pm 12.5 10.6 9.1 80 1.7 N 9 11 5 6 1012.4 1012.5 0.0
31/05:00pm 12.5 10.6 9.0 79 1.8 N 9 11 5 6 1012.5 1012.6 0.0
31/04:30pm 13.6 11.3 9.1 74 2.3 N 11 13 6 7 1012.5 1012.6 0.0
31/04:00pm 14.5 11.8 8.9 69 2.9 N 13 20 7 11 1012.5 1012.6 0.0
31/03:30pm 14.4 10.5 8.8 69 2.9 NNE 19 24 10 13 1012.4 1012.5 0.0
31/03:00pm 14.8 10.4 9.0 68 3.0 N 22 30 12 16 1012.7 1012.8 0.0
31/02:30pm 14.7 10.5 8.2 65 3.3 N 20 30 11 16 1012.8 1012.9 0.0
31/02:00pm 15.2 11.4 8.9 66 3.2 N 19 30 10 16 1013.0 1013.1 0.0
31/01:30pm 14.4 12.6 9.4 72 2.6 NNE 9 15 5 8 1013.5 1013.6 0.0
31/01:00pm 14.7 11.7 9.1 69 2.9 NNE 15 19 8 10 1013.9 1014.0 0.0
31/12:30pm 13.9 11.0 8.1 68 2.9 NE 13 17 7 9 1014.2 1014.3 0.0
31/12:00pm 13.6 10.6 7.8 68 2.9 N 13 17 7 9 1014.7 1014.8 0.0
31/11:30am 12.9 9.9 7.8 71 2.5 NNE 13 17 7 9 1014.9 1015.0 0.0
31/11:00am 12.3 8.5 7.6 73 2.3 N 17 20 9 11 1015.4 1015.5 0.0
31/10:30am 12.1 9.2 8.0 76 2.0 N 13 19 7 10 1015.7 1015.8 0.0
31/10:00am 11.8 8.8 7.7 76 2.0 N 13 20 7 11 1015.4 1015.5 0.0
31/09:30am 11.4 9.3 8.3 81 1.5 NNE 9 11 5 6 1015.6 1015.7 0.0
31/09:00am 10.9 10.1 8.1 83 1.4 NNW 2 9 1 5 1015.5 1015.6 0.0
31/08:30am 9.6 9.3 8.8 95 0.4 CALM 0 6 0 3 1015.4 1015.5 0.0
31/08:00am 9.0 8.3 8.7 98 0.1 WNW 2 6 1 3 1015.1 1015.2 0.0
31/07:30am 7.6 5.7 6.7 94 0.4 WNW 6 7 3 4 1015.1 1015.2 0.0
31/07:00am 9.9 7.7 8.0 88 0.9 N 9 11 5 6 1015.0 1015.1 0.0
31/06:30am 10.1 8.1 8.7 91 0.7 NE 9 11 5 6 1014.9 1015.0 0.0
31/06:00am 10.1 8.5 8.7 91 0.7 NNE 7 11 4 6 1014.9 1015.0 0.0
31/05:30am 10.4 9.0 8.8 90 0.8 N 6 9 3 5 1015.1 1015.2 0.0
31/05:00am 10.3 7.6 9.1 92 0.6 NNE 13 15 7 8 1015.2 1015.3 0.0
31/04:30am 10.3 8.8 9.1 92 0.6 N 7 9 4 5 1015.4 1015.5 0.0
31/04:00am 10.0 8.4 8.8 92 0.6 N 7 9 4 5 1015.3 1015.4 0.0
31/03:30am 10.5 8.9 8.9 90 0.8 N 7 11 4 6 1015.4 1015.5 0.0
31/03:00am 10.3 7.9 8.7 90 0.8 NNW 11 13 6 7 1015.9 1016.0 0.0
31/02:30am 10.8 8.5 8.9 88 0.9 N 11 13 6 7 1016.0 1016.1 0.0
31/02:00am 11.1 8.8 9.0 87 1.1 N 11 15 6 8 1016.5 1016.6 0.0
31/01:30am 11.0 8.8 9.3 89 0.9 N 11 13 6 7 1016.8 1016.9 0.0
31/01:00am 11.6 9.4 9.2 85 1.2 N 11 13 6 7 1017.3 1017.5 0.0
31/12:30am 10.8 8.5 9.1 89 0.9 NNW 11 13 6 7 1017.6 1017.8 0.0
31/12:00am 11.0 9.0 8.8 86 1.1 NNW 9 13 5 7 1017.5 1017.7 0.0
 
Date/Time
EST
Temp
°C
App
Temp
°C
Dew
Point
°C
Rel
Hum
%
Delta-T
°C
Wind Press
QNH
hPa
Press
MSL
hPa
Rain since
9am
mm
Dir  Spd
km/h
Gust
km/h
Spd
kts
Gust
kts
30/11:30pm 10.8 8.4 10.0 95 0.4 NW 13 15 7 8 1017.9 1018.1 0.0
30/11:00pm 8.8 6.4 8.8 100 0.0 WNW 11 13 6 7 1018.0 1018.2 0.0
30/10:30pm 8.5 8.2 8.5 100 0.0 CALM 0 6 0 3 1017.7 1017.9 0.0
30/10:00pm 7.5 5.8 7.4 99 0.0 SSW 6 7 3 4 1017.7 1017.9 0.0
30/09:30pm 7.8 6.1 7.7 99 0.0 SSW 6 7 3 4 1017.8 1018.0 0.0
30/09:00pm 8.6 7.8 8.2 97 0.2 NNE 2 7 1 4 1017.9 1018.1 0.0
30/08:30pm 9.6 9.5 9.5 99 0.1 CALM 0 0 0 0 1018.1 1018.3 0.0
30/08:00pm 9.7 7.9 9.4 98 0.1 WSW 9 11 5 6 1018.5 1018.6 0.0
30/07:30pm 10.5 10.2 8.8 89 0.8 CALM 0 0 0 0 1018.0 1018.2 0.0
30/07:00pm 11.8 10.4 9.7 87 1.1 WNW 7 9 4 5 1018.2 1018.4 0.0
30/06:30pm 13.0 10.4 9.4 79 1.8 ENE 13 19 7 10 1018.1 1018.3 0.0
30/06:00pm 13.1 10.2 9.5 79 1.8 ENE 15 20 8 11 1018.0 1018.2 0.0
30/05:30pm 13.2 11.1 9.6 79 1.9 ENE 11 15 6 8 1018.3 1018.5 0.0
30/05:00pm 14.1 11.7 9.9 76 2.2 ENE 13 15 7 8 1018.8 1018.9 0.0
30/04:30pm 14.4 12.8 10.2 76 2.2 ENE 9 11 5 6 1019.6 1019.7 0.0
30/04:00pm 15.5 12.6 9.6 68 3.1 NNE 15 22 8 12 1019.8 1019.9 0.0
30/03:30pm 15.9 12.1 9.8 67 3.2 NE 20 28 11 15 1019.8 1019.9 0.0
30/03:00pm 15.8 12.1 9.5 66 3.3 NNE 19 24 10 13 1020.4 1020.5 0.0
30/02:30pm 15.2 10.9 9.3 68 3.1 N 22 30 12 16 1021.1 1021.2 0.0
30/02:00pm 15.9 12.0 8.6 62 3.7 N 19 28 10 15 1021.2 1021.3 0.0
30/01:30pm 15.8 13.1 8.8 63 3.6 NE 13 17 7 9 1021.6 1021.7 0.0
30/01:00pm 15.1 12.4 9.0 67 3.1 NE 13 17 7 9 1022.2 1022.3 0.0
30/12:30pm 14.1 12.3 9.3 73 2.5 NNE 9 13 5 7 1023.2 1023.4 0.0
30/12:00pm 12.9 11.4 9.2 78 1.9 NNE 7 11 4 6 1023.9 1024.1 0.0
30/11:30am 11.9 11.1 8.0 77 1.9 NNW 2 7 1 4 1024.9 1025.1 0.0
30/11:00am 9.8 8.4 8.7 93 0.5 SSE 6 9 3 5 1025.9 1026.0 0.0
30/10:30am 8.3 6.8 8.3 100 0.0 SSE 6 7 3 4 1026.6 1026.7 0.0
30/10:00am 7.3 5.5 7.3 100 0.0 SSE 6 7 3 4 1027.0 1027.1 0.0
30/09:30am 6.0 3.9 6.0 100 0.0 S 6 7 3 4 1027.1 1027.2 0.0
30/09:12am 5.1 2.7 5.1 100 0.0 S 7 9 4 5 1027.1 1027.2 0.0
30/09:10am 4.9 2.4 4.9 100 0.0 S 7 7 4 4 1027.2 1027.3 0.0
30/09:00am 4.2 2.5 4.2 100 0.0 SW 2 7 1 4 1027.2 1027.3 0.2
30/08:30am 1.8 0.1 1.8 100 0.0 CALM 0 0 0 0 1027.2 1027.3 0.2
30/08:00am 0.5 -1.8 0.5 100 0.0 S 2 6 1 3 1027.1 1027.2 0.2
30/07:46am 0.4 -2.3 0.4 100 0.0 SSW 4 7 2 4 1027.1 1027.2 0.2
30/07:30am 0.1 -1.9 0.1 100 0.0 CALM 0 0 0 0 1027.0 1027.1 0.2
30/07:01am 0.2 -2.1 0.2 100 0.0 S 2 6 1 3 1026.9 1027.0 0.2
30/07:00am 0.2 -2.1 0.2 100 0.0 S 2 6 1 3 1026.9 1027.0 0.2
30/06:47am 0.5 -1.8 0.5 100 0.0 WSW 2 6 1 3 1026.9 1027.0 0.2
30/06:30am 0.2 -2.9 0.2 100 0.0 WSW 6 7 3 4 1026.9 1027.0 0.2
30/06:17am 0.1 -3.0 0.1 100 0.0 SSW 6 7 3 4 1026.9 1027.0 0.2
30/06:00am 0.7 -2.3 0.7 100 0.0 SSE 6 6 3 3 1026.7 1026.8 0.2
30/05:51am 0.8 -2.2 0.8 100 0.0 S 6 7 3 4 1026.6 1026.7 0.0
30/05:31am 0.2 -2.9 0.2 100 0.0 SSW 6 6 3 3 1026.7 1026.8 0.0
30/05:30am 0.3 -2.8 0.3 100 0.0 SSW 6 6 3 3 1026.7 1026.8 0.0
30/05:25am 0.6 -2.4 0.6 100 0.0 SSW 6 6 3 3 1026.6 1026.7 0.0
30/05:22am 0.4 -2.7 0.4 100 0.0 SSW 6 6 3 3 1026.5 1026.6 0.0
30/05:00am 0.4 -2.7 0.4 100 0.0 SSW 6 7 3 4 1026.4 1026.5 0.0
30/04:30am 1.0 -0.8 1.0 100 0.0 CALM 0 0 0 0 1026.6 1026.7 0.0
30/04:00am 1.0 -1.2 1.0 100 0.0 SE 2 6 1 3 1026.5 1026.6 0.0
30/03:30am 1.5 -0.3 1.5 100 0.0 CALM 0 0 0 0 1026.5 1026.6 0.0
30/03:00am 1.2 -1.7 1.2 100 0.0 SSW 6 7 3 4 1026.6 1026.7 0.0
30/02:30am 1.6 -0.1 1.6 100 0.0 CALM 0 0 0 0 1026.7 1026.8 0.0
30/02:00am 2.1 0.4 2.1 100 0.0 CALM 0 0 0 0 1026.9 1027.0 0.0
30/01:30am 1.9 -0.5 1.9 100 0.0 SSW 4 7 2 4 1026.9 1027.0 0.0
30/01:00am 1.9 -0.9 1.9 100 0.0 WSW 6 7 3 4 1027.1 1027.2 0.0
30/12:30am 2.5 -0.2 2.5 100 0.0 SW 6 7 3 4 1027.2 1027.3 0.0
30/12:00am 2.8 1.3 2.8 100 0.0 CALM 0 0 0 0 1027.5 1027.6 0.0
 
Date/Time
EST
Temp
°C
App
Temp
°C
Dew
Point
°C
Rel
Hum
%
Delta-T
°C
Wind Press
QNH
hPa
Press
MSL
hPa
Rain since
9am
mm
Dir  Spd
km/h
Gust
km/h
Spd
kts
Gust
kts
29/11:30pm 3.5 2.1 3.5 100 0.0 CALM 0 0 0 0 1027.6 1027.7 0.0
29/11:00pm 3.5 2.1 3.5 100 0.0 CALM 0 0 0 0 1027.7 1027.8 0.0
29/10:30pm 3.7 2.3 3.7 100 0.0 CALM 0 0 0 0 1027.8 1027.9 0.0
29/10:00pm 4.2 1.8 4.2 100 0.0 SW 6 7 3 4 1027.9 1028.0 0.0
29/09:30pm 4.4 2.4 4.4 100 0.0 SSW 4 7 2 4 1028.0 1028.1 0.0
29/09:00pm 5.0 2.7 5.0 100 0.0 SSE 6 6 3 3 1027.8 1027.9 0.0
29/08:30pm 4.9 2.6 4.9 100 0.0 S 6 6 3 3 1027.7 1027.8 0.0

Other formats

Comma delimited format used in spreadsheet applications
http://www.bom.gov.au/fwo/IDV60801/IDV60801.94889.axf

JavaScript Object Notation format (JSON) in row-major order
http://www.bom.gov.au/fwo/IDV60801/IDV60801.94889.json

Data quality

Most of these data are generated automatically and are frequently updated. Quality checks on data are not normally performed. It is possible for incorrect values to appear. Refer to information at About Latest Weather Observations and please check the disclaimer before using these data.